Terminal Aerodrome Forecast
Issued by NWS Charleston, SC

Home | Current Version | Previous Version | Text Only | Print | Product List | Glossary On
Versions: 1 2 3 4 5 6 7 8 9 10 11 12 13 14 15 16 17 18 19 20 21 22 23 24 25 26 27 28 29 30 31
000
FTUS42 KCHS 222300 CCA
TAFCHS
TAF COR
KCHS 222342Z 2300/2324 03005KT 6SM -DZ BR OVC004
     FM230400 04005KT 2SM -DZ BR OVC003
     FM230800 02003KT 3/4SM -DZ BR VV002
     FM231530 VRB03KT 3SM -DZ BR OVC004
     FM231900 16005KT 5SM -RA BR OVC008=

USA.gov is the U.S. government's official web portal to all federal, state and local government web resources and services.